Time;durP1;ratioP1;P1;durP2;ratioP2;P2;SDS_P1;SDS_P2;PMS_P1;PMS_P2;Temp;Humidity;BMP_temperature;BMP_pressure;BME280_temperature;BME280_humidity;BME280_pressure;Samples;Min_cycle;Max_cycle;Signal;HPM_P1;HPM_P2
2022/06/22 00:00:23;;;;;;;15.02;10.02;;;;;;;-146.19;100.00;58918.88;4983314;28;20067;-51
2022/06/22 00:02:51;;;;;;;;;;;;;;;-146.19;100.00;58918.88;4968696;28;20079;-48
2022/06/22 00:05:25;;;;;;;13.15;9.13;;;;;;;-146.19;100.00;58918.88;4987922;28;19972;-54
2022/06/22 00:07:56;;;;;;;12.95;8.73;;;;;;;-146.19;100.00;58918.88;4985810;28;20074;-50
2022/06/22 00:10:31;;;;;;;11.25;8.43;;;;;;;-146.19;100.00;58918.88;4984179;28;20070;-54
2022/06/22 00:13:01;;;;;;;14.52;9.10;;;;;;;-146.19;100.00;58918.88;4986659;28;20070;-50
2022/06/22 00:15:38;;;;;;;14.43;10.40;;;;;;;-146.19;100.00;58918.88;4987254;28;20070;-49
2022/06/22 00:18:25;;;;;;;14.77;9.20;;;;;;;-146.19;100.00;58918.88;4991120;28;20481;-52
2022/06/22 00:20:56;;;;;;;12.13;8.40;;;;;;;-146.19;100.00;58918.88;4986222;28;20461;-52
2022/06/22 00:23:27;;;;;;;10.13;7.55;;;;;;;-146.19;100.00;58918.88;4986847;28;20100;-48
2022/06/22 00:26:15;;;;;;;12.82;7.00;;;;;;;-146.19;100.00;58918.88;4988007;28;20103;-51
2022/06/22 00:28:55;;;;;;;9.30;6.05;;;;;;;-146.19;100.00;58918.88;4987074;28;20073;-49
2022/06/22 00:31:29;;;;;;;14.13;6.22;;;;;;;-146.19;100.00;58918.88;4971647;28;20070;-48
2022/06/22 00:34:06;;;;;;;9.13;6.03;;;;;;;-146.19;100.00;58918.88;4973415;28;20073;-51
2022/06/22 00:36:39;;;;;;;9.80;6.05;;;;;;;-146.19;100.00;58918.88;4969201;28;20462;-45
2022/06/22 00:39:26;;;;;;;12.00;6.13;;;;;;;-146.19;100.00;58918.88;4971129;28;20073;-49
2022/06/22 00:41:59;;;;;;;7.55;5.03;;;;;;;-146.19;100.00;58918.88;4967533;28;20065;-50
2022/06/22 00:44:29;;;;;;;8.25;5.20;;;;;;;-146.19;100.00;58918.88;4984637;28;20082;-47
2022/06/22 00:47:00;;;;;;;7.28;5.13;;;;;;;-146.19;100.00;58918.88;4987190;28;20085;-50
2022/06/22 00:49:30;;;;;;;9.50;5.15;;;;;;;-146.19;100.00;58918.88;4977227;28;20058;-50
2022/06/22 00:52:02;;;;;;;9.57;5.55;;;;;;;-146.19;100.00;58918.88;4976502;28;20062;-51
2022/06/22 00:54:33;;;;;;;7.75;5.00;;;;;;;-146.19;100.00;58918.88;4985230;28;20097;-53
2022/06/22 00:57:08;;;;;;;9.98;5.88;;;;;;;-146.19;100.00;58918.88;4972322;28;20181;-47
2022/06/22 00:59:40;;;;;;;6.78;5.22;;;;;;;-146.19;100.00;58918.88;4989010;28;20074;-50
2022/06/22 01:02:19;;;;;;;9.55;6.10;;;;;;;-146.19;100.00;58918.88;4991184;28;20057;-49
2022/06/22 01:04:51;;;;;;;7.05;5.68;;;;;;;-146.19;100.00;58918.88;4990361;28;20077;-48
2022/06/22 01:07:23;;;;;;;6.78;5.88;;;;;;;-146.19;100.00;58918.88;4987325;28;20054;-50
2022/06/22 01:09:56;;;;;;;8.90;5.63;;;;;;;-146.19;100.00;58918.88;4981822;28;20469;-48
2022/06/22 01:12:30;;;;;;;9.00;5.70;;;;;;;-146.19;100.00;58918.88;4975654;28;20476;-50
2022/06/22 01:15:05;;;;;;;7.28;4.88;;;;;;;-146.19;100.00;58918.88;4990993;28;20552;-50
2022/06/22 01:17:37;;;;;;;7.00;5.10;;;;;;;-146.19;100.00;58918.88;4988746;28;20069;-51
2022/06/22 01:20:11;;;;;;;8.68;6.13;;;;;;;-146.19;100.00;58918.88;4994434;28;20070;-52
2022/06/22 01:23:17;;;;;;;9.02;6.18;;;;;;;-146.19;100.00;58918.88;4988784;28;20077;-51
2022/06/22 01:25:57;;;;;;;8.63;7.03;;;;;;;-146.19;100.00;58918.88;4956648;28;20070;-52
2022/06/22 01:28:27;;;;;;;11.98;8.30;;;;;;;-146.19;100.00;58918.88;4975788;28;20078;-50
2022/06/22 01:30:57;;;;;;;13.38;9.50;;;;;;;-146.19;100.00;58918.88;4983310;28;20057;-48
2022/06/22 01:33:28;;;;;;;12.93;10.60;;;;;;;-146.19;100.00;58918.88;4990188;28;20069;-47
2022/06/22 01:35:58;;;;;;;14.48;10.00;;;;;;;-146.19;100.00;58918.88;4989762;28;20512;-48
2022/06/22 01:38:29;;;;;;;14.85;10.55;;;;;;;-146.19;100.00;58918.88;4987978;28;20452;-56
2022/06/22 01:41:06;;;;;;;12.20;10.38;;;;;;;-146.19;100.00;58918.88;4971449;28;20070;-48
2022/06/22 01:43:39;;;;;;;14.27;11.05;;;;;;;-146.19;100.00;58918.88;4976678;28;20066;-47
2022/06/22 01:46:13;;;;;;;14.10;10.95;;;;;;;-146.19;100.00;58918.88;4981016;28;20461;-52
2022/06/22 01:48:44;;;;;;;15.40;10.75;;;;;;;-146.19;100.00;58918.88;4989329;28;20077;-50
2022/06/22 01:51:16;;;;;;;14.98;10.95;;;;;;;-146.19;100.00;58918.88;4986211;28;20058;-52
2022/06/22 01:53:48;;;;;;;13.15;11.40;;;;;;;-146.19;100.00;58918.88;4970123;28;20078;-49
2022/06/22 01:56:24;;;;;;;14.93;10.98;;;;;;;-146.19;100.00;58918.88;4970161;28;20469;-48
2022/06/22 01:58:59;;;;;;;15.02;11.30;;;;;;;-146.19;100.00;58918.88;4987113;28;20552;-48
2022/06/22 02:01:33;;;;;;;12.73;10.77;;;;;;;-146.19;100.00;58918.88;4989126;28;20061;-54
2022/06/22 02:04:12;;;;;;;12.50;11.05;;;;;;;-146.19;100.00;58918.88;4989299;28;20070;-52
2022/06/22 02:09:38;;;;;;;13.50;11.48;;;;;;;-146.19;100.00;58918.88;4968828;28;20058;-50
2022/06/22 02:12:26;;;;;;;14.45;11.30;;;;;;;-146.19;100.00;58918.88;4969115;28;20082;-58
2022/06/22 02:15:05;;;;;;;13.40;10.73;;;;;;;-146.19;100.00;58918.88;4983384;28;20050;-49
2022/06/22 02:17:37;;;;;;;14.73;11.50;;;;;;;-146.19;100.00;58918.88;4987665;28;20090;-50
2022/06/22 02:20:27;;;;;;;12.68;11.25;;;;;;;-146.19;100.00;58918.88;4967728;28;20105;-49
2022/06/22 02:23:00;;;;;;;11.68;10.57;;;;;;;-146.19;100.00;58918.88;4983536;28;20077;-52
2022/06/22 02:25:31;;;;;;;16.02;10.88;;;;;;;-146.19;100.00;58918.88;4986486;28;20069;-50
2022/06/22 02:27:59;;;;;;;15.55;11.30;;;;;;;-146.19;100.00;58918.88;4986417;28;20066;-51
2022/06/22 02:30:30;;;;;;;12.95;11.05;;;;;;;-146.19;100.00;58918.88;4980872;28;20170;-53
2022/06/22 02:32:59;;;;;;;15.32;11.75;;;;;;;-146.19;100.00;58918.88;4969062;28;20154;-52
2022/06/22 02:35:27;;;;;;;16.25;11.88;;;;;;;-146.19;100.00;58918.88;4986243;28;20105;-49
2022/06/22 02:38:03;;;;;;;14.77;11.75;;;;;;;-146.19;100.00;58918.88;4983905;28;20073;-51
2022/06/22 02:44:29;;;;;;;13.68;11.20;;;;;;;-146.19;100.00;58918.88;4986295;28;20047;-49
2022/06/22 02:46:14;;;;;;;14.75;10.85;;;;;;;-146.19;100.00;58918.88;4977950;28;20073;-51
2022/06/22 02:48:45;;;;;;;15.93;11.60;;;;;;;-146.19;100.00;58918.88;4969200;28;20070;-48
2022/06/22 02:51:18;;;;;;;14.45;11.75;;;;;;;-146.19;100.00;58918.88;4969493;28;20078;-51
2022/06/22 02:53:47;;;;;;;13.27;11.75;;;;;;;-146.19;100.00;58918.88;4966199;28;20490;-51
2022/06/22 02:56:19;;;;;;;13.98;12.15;;;;;;;-146.19;100.00;58918.88;4964926;28;20486;-52
2022/06/22 02:58:49;;;;;;;15.30;11.98;;;;;;;-146.19;100.00;58918.88;4981712;28;20070;-51
2022/06/22 03:01:21;;;;;;;13.93;12.30;;;;;;;-146.19;100.00;58918.88;4987914;28;20062;-48
2022/06/22 03:03:52;;;;;;;16.73;11.95;;;;;;;-146.19;100.00;58918.88;4987978;28;20081;-46
2022/06/22 03:06:23;;;;;;;17.63;12.45;;;;;;;-146.19;100.00;58918.88;4985935;28;20595;-51
2022/06/22 03:08:51;;;;;;;;;;;;;;;-146.19;100.00;58918.88;4988800;28;20081;-54
2022/06/22 03:11:21;;;;;;;13.65;10.80;;;;;;;-146.19;100.00;58918.88;4987995;28;19964;-48
2022/06/22 03:13:53;;;;;;;12.50;11.20;;;;;;;-146.19;100.00;58918.88;4986109;28;20069;-48
2022/06/22 03:16:28;;;;;;;13.05;11.20;;;;;;;-146.19;100.00;58918.88;4985894;28;20077;-50
2022/06/22 03:19:00;;;;;;;15.23;11.60;;;;;;;-146.19;100.00;58918.88;4986049;28;20069;-54
2022/06/22 03:21:29;;;;;;;13.90;12.30;;;;;;;-146.19;100.00;58918.88;4985684;28;20077;-49
2022/06/22 03:24:03;;;;;;;16.90;12.45;;;;;;;-146.19;100.00;58918.88;4983736;28;20074;-50
2022/06/22 03:26:35;;;;;;;13.50;11.43;;;;;;;-146.19;100.00;58918.88;4987763;28;20074;-49
2022/06/22 03:29:06;;;;;;;14.50;11.65;;;;;;;-146.19;100.00;58918.88;4988571;28;20065;-46
2022/06/22 03:31:43;;;;;;;16.35;11.57;;;;;;;-146.19;100.00;58918.88;4986773;28;20070;-47
2022/06/22 03:34:17;;;;;;;15.52;11.88;;;;;;;-146.19;100.00;58918.88;4986113;28;20054;-46
2022/06/22 03:36:48;;;;;;;19.98;12.25;;;;;;;-146.19;100.00;58918.88;4987139;28;20065;-52
2022/06/22 03:39:18;;;;;;;14.07;11.25;;;;;;;-146.19;100.00;58918.88;4983040;28;20789;-49
2022/06/22 03:42:03;;;;;;;;;;;;;;;-146.19;100.00;58918.88;4967950;28;20556;-55
2022/06/22 03:44:34;;;;;;;14.48;10.68;;;;;;;-146.19;100.00;58918.88;4964523;28;20391;-52
2022/06/22 03:47:08;;;;;;;15.13;10.80;;;;;;;-146.19;100.00;58918.88;4983160;28;20097;-51
2022/06/22 03:49:41;;;;;;;13.40;9.77;;;;;;;-146.19;100.00;58918.88;4968776;28;20070;-56
2022/06/22 03:52:14;;;;;;;14.23;10.13;;;;;;;-146.19;100.00;58918.88;4974471;28;20062;-55
2022/06/22 03:54:46;;;;;;;12.52;10.48;;;;;;;-146.19;100.00;58918.88;4986663;28;20078;-57
2022/06/22 03:57:16;;;;;;;18.52;11.88;;;;;;;-146.19;100.00;58918.88;4988863;28;20057;-50
2022/06/22 03:59:46;;;;;;;12.63;10.88;;;;;;;-146.19;100.00;58918.88;4983338;28;20062;-52
2022/06/22 04:02:18;;;;;;;15.52;11.75;;;;;;;-146.19;100.00;58918.88;4982376;28;20481;-55
2022/06/22 04:04:49;;;;;;;14.10;11.60;;;;;;;-146.19;100.00;58918.88;4989386;28;20069;-56
2022/06/22 04:07:18;;;;;;;13.27;11.43;;;;;;;-146.19;100.00;58918.88;4989219;28;20468;-54
2022/06/22 04:09:51;;;;;;;18.58;12.57;;;;;;;-146.19;100.00;58918.88;4989370;28;20088;-57
2022/06/22 04:12:24;;;;;;;15.43;12.05;;;;;;;-146.19;100.00;58918.88;4988370;28;20058;-54
2022/06/22 04:15:00;;;;;;;13.60;10.93;;;;;;;-146.19;100.00;58918.88;4989512;28;20559;-54
2022/06/22 04:17:35;;;;;;;13.98;10.75;;;;;;;-146.19;100.00;58918.88;4989689;28;20101;-54
2022/06/22 04:20:06;;;;;;;15.45;11.68;;;;;;;-146.19;100.00;58918.88;4989176;28;20089;-55
2022/06/22 04:22:39;;;;;;;14.32;10.90;;;;;;;-146.19;100.00;58918.88;4992920;28;20074;-50
2022/06/22 04:25:16;;;;;;;14.88;11.35;;;;;;;-146.19;100.00;58918.88;4992791;28;20077;-52
2022/06/22 04:27:48;;;;;;;13.95;10.77;;;;;;;-146.19;100.00;58918.88;4992991;28;20073;-50
2022/06/22 04:30:19;;;;;;;13.82;11.95;;;;;;;-146.19;100.00;58918.88;4985858;28;20066;-55
2022/06/22 04:32:54;;;;;;;12.77;11.48;;;;;;;-146.19;100.00;58918.88;4989558;28;20470;-57
2022/06/22 04:35:30;;;;;;;13.20;11.30;;;;;;;-146.19;100.00;58918.88;4979174;28;20066;-55
2022/06/22 04:38:02;;;;;;;12.73;11.07;;;;;;;-146.19;100.00;58918.88;4973485;28;20081;-54
2022/06/22 04:40:33;;;;;;;13.00;10.68;;;;;;;-146.19;100.00;58918.88;4982801;28;20083;-55
2022/06/22 04:43:03;;;;;;;13.25;11.88;;;;;;;-146.19;100.00;101358.22;4983503;28;20077;-55
2022/06/22 04:45:33;;;;;;;12.93;10.25;;;;;;;-146.19;100.00;58918.88;4978989;28;20062;-54
2022/06/22 04:48:08;;;;;;;14.05;10.50;;;;;;;-146.19;100.00;58918.88;4992645;28;20085;-54
2022/06/22 04:50:37;;;;;;;12.25;10.70;;;;;;;-146.19;100.00;58918.88;4993348;28;20478;-54
2022/06/22 04:53:05;;;;;;;11.77;10.57;;;;;;;-146.19;100.00;58918.88;4992605;28;20038;-53
2022/06/22 04:55:38;;;;;;;13.35;10.35;;;;;;;-146.19;100.00;58918.88;4992051;28;20070;-57
2022/06/22 04:58:17;;;;;;;11.95;10.75;;;;;;;-146.19;100.00;58918.88;4992350;28;20069;-55
2022/06/22 05:00:47;;;;;;;15.15;11.38;;;;;;;-146.19;100.00;58918.88;4992187;28;20077;-57
2022/06/22 05:03:17;;;;;;;13.68;10.93;;;;;;;23.80;100.00;95879.81;4992389;28;20078;-56
2022/06/22 05:05:45;;;;;;;12.90;11.05;;;;;;;23.47;100.00;95886.72;4993315;28;20089;-55
2022/06/22 05:08:19;;;;;;;15.60;11.85;;;;;;;23.72;100.00;95889.09;4991220;28;20101;-52
2022/06/22 05:10:50;;;;;;;14.60;11.48;;;;;;;23.81;100.00;95892.19;4985282;28;20066;-52
2022/06/22 05:13:24;;;;;;;16.05;12.27;;;;;;;23.59;100.00;95878.59;4987112;28;20505;-54
2022/06/22 05:15:55;;;;;;;15.32;11.73;;;;;;;23.32;100.00;95867.56;4990881;28;20074;-54
2022/06/22 05:18:27;;;;;;;16.13;11.90;;;;;;;23.27;100.00;95862.91;4992167;28;20061;-55
2022/06/22 05:21:00;;;;;;;16.83;11.65;;;;;;;23.53;100.00;95860.69;4992072;28;20080;-49
2022/06/22 05:23:30;;;;;;;14.98;11.60;;;;;;;23.52;100.00;95872.53;4992413;28;20197;-52
2022/06/22 05:26:01;;;;;;;12.98;11.25;;;;;;;23.44;100.00;95871.84;4984676;28;20058;-54
2022/06/22 05:28:31;;;;;;;;;;;;;;;23.37;100.00;95867.69;4988118;28;20073;-57
2022/06/22 05:31:03;;;;;;;15.68;10.80;;;;;;;23.15;100.00;95859.44;4991530;28;20385;-57
2022/06/22 05:33:35;;;;;;;13.55;10.80;;;;;;;22.82;100.00;95854.72;4991258;28;20061;-53
2022/06/22 05:36:05;;;;;;;13.18;9.70;;;;;;;23.56;100.00;95858.34;4991735;28;20074;-57
2022/06/22 05:38:41;;;;;;;10.77;9.73;;;;;;;24.34;100.00;95854.03;4992325;28;20086;-59
2022/06/22 05:41:10;;;;;;;11.43;9.27;;;;;;;23.56;100.00;95857.53;4991675;28;20101;-57
2022/06/22 05:43:40;;;;;;;11.47;9.27;;;;;;;23.87;100.00;95850.84;4991363;28;20074;-55
2022/06/22 05:46:10;;;;;;;11.45;8.73;;;;;;;23.30;100.00;95856.25;4991973;28;20458;-53
2022/06/22 05:48:43;;;;;;;10.27;8.95;;;;;;;23.89;100.00;95859.50;4990750;28;20074;-57
2022/06/22 05:51:17;;;;;;;11.38;8.68;;;;;;;23.33;100.00;95864.66;4991833;28;20066;-57
2022/06/22 05:53:49;;;;;;;11.20;8.32;;;;;;;23.45;100.00;95873.47;4992124;28;20073;-59
2022/06/22 05:56:21;;;;;;;9.07;7.95;;;;;;;23.62;100.00;95867.34;4986501;28;20421;-57
2022/06/22 05:58:54;;;;;;;9.45;8.48;;;;;;;25.02;100.00;95860.13;4992938;28;20642;-57
2022/06/22 06:01:28;;;;;;;9.52;7.10;;;;;;;25.77;100.00;95860.44;4991301;28;20078;-55
2022/06/22 06:04:04;;;;;;;9.13;6.22;;;;;;;26.76;100.00;95861.81;4986111;28;20088;-54
2022/06/22 06:06:35;;;;;;;10.68;6.68;;;;;;;27.13;100.00;95852.84;4991322;28;20436;-57
2022/06/22 06:09:06;;;;;;;7.97;6.03;;;;;;;27.20;100.00;95846.09;4988712;28;20089;-53
2022/06/22 06:11:37;;;;;;;8.73;7.07;;;;;;;26.81;100.00;95847.53;4991964;28;20439;-50
2022/06/22 06:14:09;;;;;;;8.50;6.70;;;;;;;26.83;100.00;95853.47;4989415;28;20066;-58
2022/06/22 06:16:45;;;;;;;11.93;6.47;;;;;;;27.13;100.00;95853.66;4991269;28;20069;-57
2022/06/22 06:19:18;;;;;;;9.13;6.85;;;;;;;27.05;100.00;95854.13;4991092;28;20077;-53
2022/06/22 06:21:47;;;;;;;10.63;6.97;;;;;;;26.95;100.00;95857.59;4987945;28;20175;-53
2022/06/22 06:24:19;;;;;;;8.75;6.90;;;;;;;27.23;100.00;95854.78;4989415;28;20517;-60
2022/06/22 06:29:46;;;;;;;11.80;6.75;;;;;;;27.57;100.00;95857.88;4992005;28;20073;-55
2022/06/22 06:32:26;;;;;;;7.70;6.07;;;;;;;27.86;100.00;95863.63;4990292;28;21707;-55
2022/06/22 06:35:03;;;;;;;10.48;6.32;;;;;;;27.91;100.00;95850.09;4991071;28;20062;-52
2022/06/22 06:37:42;;;;;;;8.63;6.30;;;;;;;28.24;100.00;95856.88;4990037;28;20065;-58
2022/06/22 06:40:12;;;;;;;8.85;6.43;;;;;;;27.71;100.00;95853.56;4990663;28;20711;-54
2022/06/22 06:42:45;;;;;;;12.40;6.00;;;;;;;26.28;100.00;95855.50;4990215;28;20714;-56
2022/06/22 06:45:16;;;;;;;9.18;6.72;;;;;;;26.96;100.00;95859.22;4989562;28;20073;-55
2022/06/22 06:47:49;;;;;;;7.03;6.15;;;;;;;27.17;100.00;95862.06;4991344;28;20092;-54
2022/06/22 06:50:23;;;;;;;11.23;6.43;;;;;;;27.29;100.00;95869.94;4970852;28;21519;-55
2022/06/22 06:53:00;;;;;;;9.43;6.75;;;;;;;26.33;100.00;95870.97;4981219;28;20066;-54
2022/06/22 06:55:33;;;;;;;8.75;6.20;;;;;;;27.30;100.00;95874.31;4982133;28;20057;-53
2022/06/22 06:58:08;;;;;;;10.60;6.97;;;;;;;26.77;100.00;95868.03;4976881;28;20062;-53
2022/06/22 07:00:37;;;;;;;12.30;7.13;;;;;;;27.36;100.00;95860.53;4984231;28;20057;-55
2022/06/22 07:03:08;;;;;;;10.30;6.70;;;;;;;26.20;100.00;95864.94;4982685;28;20082;-53
2022/06/22 07:05:38;;;;;;;12.35;7.40;;;;;;;26.36;100.00;95871.28;4974952;28;20066;-54
2022/06/22 07:08:11;;;;;;;7.70;6.32;;;;;;;26.01;100.00;95872.59;4989493;28;20062;-55
2022/06/22 07:11:03;;;;;;;9.27;6.55;;;;;;;27.15;100.00;95875.88;4990043;28;20073;-56
2022/06/22 07:13:36;;;;;;;10.38;6.60;;;;;;;26.52;100.00;95877.63;4989671;28;20069;-49
2022/06/22 07:16:09;;;;;;;13.45;7.00;;;;;;;27.14;100.00;95868.00;4990049;28;20066;-53
2022/06/22 07:18:42;;;;;;;11.48;6.70;;;;;;;27.62;100.00;95866.00;4987884;28;20070;-52
2022/06/22 07:21:17;;;;;;;8.32;6.15;;;;;;;27.83;100.00;95862.28;4984863;28;20081;-56
2022/06/22 07:23:49;;;;;;;10.32;6.47;;;;;;;28.25;100.00;95868.53;4989547;28;20688;-57
2022/06/22 07:26:37;;;;;;;10.15;6.70;;;;;;;28.36;100.00;95870.19;4989291;28;20461;-50
2022/06/22 07:29:22;;;;;;;11.10;6.38;;;;;;;28.52;100.00;95865.56;4989798;28;20077;-56
2022/06/22 07:31:56;;;;;;;10.23;6.15;;;;;;;27.23;100.00;95879.16;4989908;28;20080;-55
2022/06/22 07:34:28;;;;;;;9.93;6.20;;;;;;;27.79;100.00;95884.75;4989320;28;20078;-57
2022/06/22 07:37:02;;;;;;;11.60;6.75;;;;;;;28.50;100.00;95884.03;4988080;28;20108;-55
2022/06/22 07:39:34;;;;;;;11.48;6.70;;;;;;;29.10;100.00;95887.75;4990621;28;20433;-57
2022/06/22 07:42:03;;;;;;;9.50;6.40;;;;;;;28.55;100.00;95898.41;4990550;28;20091;-57
2022/06/22 07:44:33;;;;;;;12.13;6.72;;;;;;;28.77;100.00;95903.53;4978085;28;20540;-55
2022/06/22 07:47:05;;;;;;;9.20;7.15;;;;;;;28.07;100.00;95921.41;4975941;28;20078;-53
2022/06/22 07:49:38;;;;;;;13.13;6.38;;;;;;;28.45;100.00;95928.22;4983390;28;20062;-57
2022/06/22 07:52:13;;;;;;;11.52;7.03;;;;;;;28.98;100.00;95922.50;4983747;28;20065;-57
2022/06/22 07:54:44;;;;;;;10.23;6.90;;;;;;;28.79;100.00;95924.97;4989090;28;20528;-52
2022/06/22 07:57:15;;;;;;;11.10;6.50;;;;;;;29.16;100.00;95913.00;4989475;28;20434;-54
2022/06/22 07:59:47;;;;;;;13.20;6.97;;;;;;;28.04;100.00;95914.59;4990014;28;20496;-53
2022/06/22 08:02:18;;;;;;;9.70;6.72;;;;;;;28.03;100.00;95915.69;4969616;28;20097;-56
2022/06/22 08:04:50;;;;;;;9.82;6.28;;;;;;;27.97;100.00;95921.38;4985740;28;20070;-58
2022/06/22 08:07:24;;;;;;;11.02;6.32;;;;;;;28.46;100.00;95900.03;4989158;28;20065;-56
2022/06/22 08:10:00;;;;;;;11.45;6.75;;;;;;;28.52;100.00;95892.69;4987969;28;20260;-55
2022/06/22 08:12:33;;;;;;;12.98;6.85;;;;;;;28.06;100.00;95890.78;4989182;28;20533;-53
2022/06/22 08:15:21;;;;;;;10.68;6.80;;;;;;;29.09;100.00;95875.25;4981996;28;20494;-57
2022/06/22 08:17:52;;;;;;;9.48;6.47;;;;;;;29.53;100.00;95875.34;4989213;28;20074;-55
2022/06/22 08:20:23;;;;;;;11.40;6.32;;;;;;;30.51;100.00;95862.75;4986447;28;20081;-56
2022/06/22 08:22:54;;;;;;;11.35;6.50;;;;;;;30.06;100.00;95882.94;4989318;28;20070;-56
2022/06/22 08:25:44;;;;;;;11.88;6.93;;;;;;;29.16;100.00;95886.63;4988407;28;20066;-58
2022/06/22 08:28:15;;;;;;;11.10;5.88;;;;;;;30.08;100.00;95882.69;4989292;28;20069;-54
2022/06/22 08:30:43;;;;;;;13.48;6.50;;;;;;;30.91;100.00;95884.47;4988914;28;20555;-55
2022/06/22 08:33:14;;;;;;;9.13;5.93;;;;;;;30.45;100.00;95890.28;4990714;28;20520;-57
2022/06/22 08:35:46;;;;;;;10.38;6.43;;;;;;;29.74;100.00;95886.97;4989846;28;20082;-51
2022/06/22 08:38:20;;;;;;;8.80;6.00;;;;;;;29.94;100.00;95894.19;4988389;28;20633;-57
2022/06/22 08:40:55;;;;;;;9.75;6.32;;;;;;;29.75;100.00;95898.63;4988965;28;20077;-54
2022/06/22 08:43:29;;;;;;;7.65;6.40;;;;;;;29.14;100.00;95901.56;4988335;28;20085;-54
2022/06/22 08:46:09;;;;;;;10.52;6.35;;;;;;;29.53;100.00;95899.81;4988855;28;20058;-55
2022/06/22 08:48:57;;;;;;;12.27;6.38;;;;;;;29.63;100.00;95903.56;4987856;28;20066;-54
2022/06/22 08:51:37;;;;;;;9.45;6.13;;;;;;;29.30;100.00;95895.81;4983470;28;20146;-56
2022/06/22 08:54:21;;;;;;;13.20;6.82;;;;;;;29.27;100.00;95915.38;4988472;28;20132;-55
2022/06/22 08:56:56;;;;;;;10.32;6.40;;;;;;;29.26;100.00;95915.66;4982604;28;20082;-58
2022/06/22 09:00:00;;;;;;;10.50;6.22;;;;;;;28.72;100.00;95938.81;4989187;28;20485;-53
2022/06/22 09:02:50;;;;;;;13.88;6.85;;;;;;;29.13;100.00;95941.50;4962665;28;21382;-54
2022/06/22 09:05:39;;;;;;;11.18;6.43;;;;;;;28.17;100.00;95956.66;4965059;28;21540;-50
2022/06/22 09:08:23;;;;;;;11.05;6.72;;;;;;;28.63;100.00;95959.44;4987921;28;20448;-53
2022/06/22 09:11:03;;;;;;;9.52;6.28;;;;;;;28.62;100.00;95947.78;4981545;28;20067;-53
2022/06/22 09:13:46;;;;;;;10.68;6.47;;;;;;;28.82;100.00;95943.41;4985587;28;20509;-51
2022/06/22 09:16:23;;;;;;;11.45;6.35;;;;;;;28.30;100.00;95942.59;4992311;28;20073;-53
2022/06/22 09:19:07;;;;;;;9.43;5.10;;;;;;;28.32;100.00;95939.59;4991297;28;20054;-53
2022/06/22 09:21:48;;;;;;;10.65;5.47;;;;;;;28.74;100.00;95923.09;4986842;28;20061;-53
2022/06/22 09:24:21;;;;;;;12.98;5.82;;;;;;;28.15;100.00;95932.53;4992115;28;20064;-50
2022/06/22 09:27:00;;;;;;;15.73;5.50;;;;;;;28.20;100.00;95936.34;4992103;28;20074;-50
2022/06/22 09:29:40;;;;;;;13.75;5.15;;;;;;;27.80;100.00;95938.69;4992058;28;20091;-51
2022/06/22 09:32:27;;;;;;;14.65;5.00;;;;;;;28.44;100.00;95928.53;4985954;28;20070;-53
2022/06/22 09:35:14;;;;;;;12.15;5.60;;;;;;;29.39;100.00;95911.53;4988585;28;20077;-51
2022/06/22 09:37:54;;;;;;;14.15;5.15;;;;;;;29.41;100.00;95912.88;4991653;28;20616;-56
2022/06/22 09:40:41;;;;;;;13.65;5.55;;;;;;;28.50;100.00;95911.97;4991123;28;20085;-55
2022/06/22 09:43:35;;;;;;;12.57;5.30;;;;;;;28.58;100.00;95906.00;4991672;28;20568;-52
2022/06/22 09:46:16;;;;;;;14.43;6.53;;;;;;;29.06;100.00;95897.53;4991487;28;20074;-50
2022/06/22 09:49:06;;;;;;;11.80;4.93;;;;;;;28.37;100.00;95905.16;4991867;28;20066;-56
2022/06/22 09:51:46;;;;;;;11.98;5.57;;;;;;;28.63;100.00;95910.59;4991597;28;20073;-48
2022/06/22 09:58:05;;;;;;;11.93;4.97;;;;;;;28.82;100.00;95911.66;4991657;28;20061;-50
2022/06/22 10:00:40;;;;;;;15.15;5.90;;;;;;;28.54;100.00;95914.97;4988992;28;20065;-47
2022/06/22 10:03:25;;;;;;;12.95;6.20;;;;;;;28.56;100.00;95921.75;4991623;28;20089;-55
2022/06/22 10:06:10;;;;;;;18.75;6.20;;;;;;;28.59;100.00;95913.03;4990983;28;20090;-53
2022/06/22 10:08:54;;;;;;;17.05;5.85;;;;;;;28.66;100.00;95923.63;4987487;28;20086;-57
2022/06/22 10:11:28;;;;;;;13.88;6.18;;;;;;;28.30;100.00;95929.03;4990743;28;20082;-51
2022/06/22 10:14:14;;;;;;;11.35;5.60;;;;;;;27.02;100.00;95951.28;4991190;28;20077;-55
2022/06/22 10:17:16;;;;;;;14.15;6.72;;;;;;;27.78;100.00;95937.34;4990473;28;20111;-52
2022/06/22 10:19:53;;;;;;;12.07;5.60;;;;;;;27.31;100.00;95922.75;4983675;28;20065;-52
2022/06/22 10:22:50;;;;;;;15.68;6.10;;;;;;;27.18;100.00;95918.63;4985982;28;20276;-54
2022/06/22 10:25:39;;;;;;;15.65;6.22;;;;;;;27.14;100.00;95908.59;4990338;28;20073;-55
2022/06/22 10:28:25;;;;;;;14.45;6.70;;;;;;;27.63;100.00;95905.53;4985099;28;20092;-55
2022/06/22 10:31:01;;;;;;;10.43;6.00;;;;;;;27.59;100.00;95918.81;4988478;28;20071;-53
2022/06/22 10:33:54;;;;;;;19.27;6.20;;;;;;;27.16;100.00;95920.00;4990592;28;20062;-56
2022/06/22 10:36:40;;;;;;;12.98;6.50;;;;;;;26.56;100.00;95918.47;4990771;28;20511;-52
2022/06/22 10:39:27;;;;;;;16.70;7.15;;;;;;;26.99;100.00;95914.72;4988585;28;20192;-50
2022/06/22 10:45:12;;;;;;;14.57;6.75;;;;;;;27.34;100.00;95919.53;4988066;28;20473;-54
2022/06/22 10:48:15;;;;;;;16.95;6.50;;;;;;;27.61;100.00;95918.56;4991266;28;20453;-54
2022/06/22 10:50:51;;;;;;;14.48;6.35;;;;;;;27.84;100.00;95915.41;4970027;28;21967;-54
2022/06/22 10:53:37;;;;;;;20.25;7.18;;;;;;;27.71;100.00;95921.28;4971200;28;20081;-51
2022/06/22 10:56:16;;;;;;;14.07;6.95;;;;;;;27.83;100.00;95926.50;4984683;28;20666;-55
2022/06/22 10:59:01;;;;;;;16.90;7.18;;;;;;;27.08;100.00;95924.00;4990203;28;20466;-55
2022/06/22 11:01:51;;;;;;;17.60;6.82;;;;;;;26.95;100.00;95932.56;4990147;28;20638;-57
2022/06/22 11:04:48;;;;;;;20.88;7.55;;;;;;;26.85;100.00;95940.63;4986940;28;20062;-49
2022/06/22 11:07:44;;;;;;;17.25;7.03;;;;;;;26.75;100.00;95947.56;4984695;28;20077;-53
2022/06/22 11:10:46;;;;;;;15.43;6.75;;;;;;;26.59;100.00;95961.25;4987922;28;20069;-52
2022/06/22 11:13:43;;;;;;;17.80;7.28;;;;;;;26.93;100.00;95946.34;4980016;28;20072;-55
2022/06/22 11:16:45;;;;;;;16.83;7.13;;;;;;;26.97;100.00;95941.22;4958455;28;20547;-56
2022/06/22 11:19:41;;;;;;;13.70;7.43;;;;;;;27.02;100.00;95938.56;4965521;28;20175;-58
2022/06/22 11:22:18;;;;;;;13.52;8.18;;;;;;;26.93;100.00;95937.41;4984086;28;20074;-57
2022/06/22 11:30:48;;;;;;;17.55;8.05;;;;;;;26.64;100.00;95936.97;4989689;28;20084;-53
2022/06/22 11:31:24;;;;;;;16.50;7.35;;;;;;;27.03;100.00;95934.78;4984064;28;20154;-53
2022/06/22 11:34:06;;;;;;;20.80;8.23;;;;;;;27.31;100.00;95925.47;4989541;28;20736;-48
2022/06/22 11:36:40;;;;;;;13.02;7.20;;;;;;;27.17;100.00;95935.97;4989262;28;20069;-51
2022/06/22 11:39:52;;;;;;;13.00;7.72;;;;;;;26.63;100.00;95951.53;4989165;28;20463;-53
2022/06/22 11:42:25;;;;;;;15.77;8.35;;;;;;;26.67;100.00;95955.34;4989019;28;20066;-52
2022/06/22 11:48:07;;;;;;;14.55;7.97;;;;;;;26.88;100.00;95961.75;4985501;28;20093;-52
2022/06/22 11:50:45;;;;;;;15.20;8.05;;;;;;;26.65;100.00;95966.44;4989920;28;20074;-47
2022/06/22 11:53:25;;;;;;;15.30;8.85;;;;;;;26.99;100.00;95968.84;4970151;28;20049;-51
2022/06/22 11:55:56;;;;;;;18.55;8.23;;;;;;;26.87;100.00;95966.31;4987422;28;20070;-47
2022/06/22 11:59:03;;;;;;;13.63;7.88;;;;;;;26.88;100.00;95964.44;4989245;28;20070;-50
2022/06/22 12:01:46;;;;;;;18.83;8.23;;;;;;;27.72;100.00;95957.34;4964270;28;20123;-54
2022/06/22 12:04:47;;;;;;;20.42;9.02;;;;;;;27.80;100.00;95965.78;4966479;28;20085;-51
2022/06/22 12:07:58;;;;;;;17.30;8.10;;;;;;;27.86;100.00;95956.59;4979532;28;20592;-55
2022/06/22 12:10:41;;;;;;;16.65;8.65;;;;;;;28.36;100.00;95962.41;4965507;28;20176;-51
2022/06/22 12:13:28;;;;;;;16.70;9.10;;;;;;;27.92;100.00;95968.28;4989184;28;20074;-51